createdAt,value
2018-09-08T00:04:58.725Z,99.90
2018-09-08T00:07:32.626Z,99.90
2018-09-08T00:10:01.162Z,99.90
2018-09-08T00:12:30.445Z,99.90
2018-09-08T00:15:04.256Z,99.90
2018-09-08T00:17:39.202Z,99.90
2018-09-08T00:20:13.169Z,99.90
2018-09-08T00:22:46.912Z,99.90
2018-09-08T00:30:11.885Z,99.90
2018-09-08T00:32:40.421Z,99.90
2018-09-08T00:35:08.997Z,99.90
2018-09-08T00:37:37.619Z,99.90
2018-09-08T00:40:06.134Z,99.90
2018-09-08T00:42:34.636Z,99.90
2018-09-08T00:45:03.162Z,99.90
2018-09-08T00:47:31.663Z,99.90
2018-09-08T00:50:00.306Z,99.90
2018-09-08T00:52:28.890Z,99.90
2018-09-08T00:54:57.413Z,99.90
2018-09-08T00:57:28.207Z,99.90
2018-09-08T00:59:56.754Z,99.90
2018-09-08T01:02:25.234Z,99.90
2018-09-08T01:04:53.725Z,99.90
2018-09-08T01:07:27.559Z,99.90
2018-09-08T01:09:57.699Z,99.90
2018-09-08T01:12:26.841Z,99.90
2018-09-08T01:14:56.963Z,99.90
2018-09-08T01:17:25.634Z,99.90
2018-09-08T01:19:54.343Z,99.90
2018-09-08T01:22:22.930Z,99.90
2018-09-08T01:24:51.521Z,99.90
2018-09-08T01:27:20.077Z,99.90
2018-09-08T01:29:48.617Z,99.90
2018-09-08T01:32:17.574Z,99.90
2018-09-08T01:34:46.285Z,99.90
2018-09-08T01:43:14.514Z,99.90
2018-09-08T01:45:43.011Z,99.90
2018-09-08T01:48:11.754Z,99.90
2018-09-08T01:50:40.386Z,99.90
2018-09-08T01:53:08.925Z,99.90
2018-09-08T01:55:37.587Z,99.90
2018-09-08T01:58:06.200Z,99.90
2018-09-08T02:00:34.761Z,99.90
2018-09-08T02:03:03.456Z,99.90
2018-09-08T02:05:32.480Z,99.90
2018-09-08T02:08:00.984Z,99.90
2018-09-08T02:10:30.202Z,99.90
2018-09-08T02:12:58.779Z,99.90
2018-09-08T02:15:27.706Z,99.90
2018-09-08T02:17:56.302Z,99.90
2018-09-08T02:20:24.845Z,99.90
2018-09-08T02:22:53.562Z,99.90
2018-09-08T02:25:22.205Z,99.90
2018-09-08T02:27:51.848Z,99.90
2018-09-08T02:30:20.365Z,99.90
2018-09-08T02:32:48.854Z,99.90
2018-09-08T02:35:17.563Z,99.90
2018-09-08T02:37:46.046Z,99.90
2018-09-08T02:45:11.918Z,99.90
2018-09-08T02:47:40.400Z,99.90
2018-09-08T02:50:20.198Z,99.90
2018-09-08T02:52:47.549Z,99.90
2018-09-08T02:55:16.461Z,99.90
2018-09-08T02:57:43.845Z,99.90
2018-09-08T03:00:11.219Z,99.90
2018-09-08T03:02:38.601Z,99.90
2018-09-08T03:05:06.570Z,99.90
2018-09-08T03:07:33.945Z,99.90
2018-09-08T03:10:01.287Z,99.90
2018-09-08T03:12:28.967Z,99.90
2018-09-08T03:14:56.326Z,99.90
2018-09-08T03:17:24.301Z,99.90
2018-09-08T03:19:51.887Z,99.90
2018-09-08T03:22:19.293Z,99.90
2018-09-08T03:24:46.644Z,99.90
2018-09-08T03:32:14.166Z,99.90
2018-09-08T03:34:41.589Z,99.90
2018-09-08T03:37:09.327Z,99.90
2018-09-08T03:39:36.769Z,99.90
2018-09-08T03:42:04.190Z,99.90
2018-09-08T03:44:31.911Z,99.90
2018-09-08T03:46:59.402Z,99.90
2018-09-08T03:49:26.762Z,99.90
2018-09-08T03:51:54.141Z,99.90
2018-09-08T03:54:22.554Z,99.90
2018-09-08T03:56:49.931Z,99.90
2018-09-08T03:59:17.294Z,99.90
2018-09-08T04:01:44.783Z,99.90
2018-09-08T04:04:13.601Z,99.90
2018-09-08T04:06:42.806Z,99.90
2018-09-08T04:09:12.025Z,99.90
2018-09-08T04:11:40.666Z,99.90
2018-09-08T04:14:09.614Z,99.90
2018-09-08T04:16:38.594Z,99.90
2018-09-08T04:19:08.338Z,99.90
2018-09-08T04:21:36.958Z,99.90
2018-09-08T04:24:06.834Z,99.90
2018-09-08T04:26:35.442Z,99.90
2018-09-08T04:29:03.976Z,99.90
2018-09-08T04:31:32.613Z,99.90
2018-09-08T04:34:01.292Z,99.90
2018-09-08T04:36:29.937Z,99.90
2018-09-08T04:38:58.529Z,99.90
2018-09-08T04:41:27.143Z,99.90
2018-09-08T04:43:55.678Z,99.90
2018-09-08T04:46:24.266Z,99.90
2018-09-08T04:48:53.336Z,99.90
2018-09-08T04:51:21.818Z,99.90
2018-09-08T04:53:50.349Z,99.90
2018-09-08T04:56:18.831Z,99.90
2018-09-08T04:58:48.419Z,99.90
2018-09-08T05:01:17.974Z,99.90
2018-09-08T05:03:46.515Z,99.90
2018-09-08T05:11:13.446Z,99.90
2018-09-08T05:13:41.945Z,99.90
2018-09-08T05:16:10.469Z,99.90
2018-09-08T05:18:39.394Z,99.90
2018-09-08T05:21:08.783Z,99.90
2018-09-08T05:23:37.355Z,99.90
2018-09-08T05:26:05.865Z,99.90
2018-09-08T05:28:34.364Z,99.90
2018-09-08T05:31:02.846Z,99.90
2018-09-08T05:33:31.457Z,99.90
2018-09-08T05:35:59.982Z,99.90
2018-09-08T05:38:28.517Z,99.90
2018-09-08T05:40:57.561Z,99.90
2018-09-08T05:43:26.086Z,99.90
2018-09-08T05:45:55.001Z,99.90
2018-09-08T05:48:23.495Z,99.90
2018-09-08T05:50:52.001Z,99.90
2018-09-08T05:53:20.486Z,99.90
2018-09-08T05:55:48.993Z,99.90
2018-09-08T05:58:17.530Z,99.90
2018-09-08T06:00:46.057Z,99.90
2018-09-08T06:08:07.782Z,99.90
2018-09-08T06:10:36.529Z,99.90
2018-09-08T06:13:05.106Z,99.90
2018-09-08T06:15:33.741Z,99.90
2018-09-08T06:18:02.967Z,99.90
2018-09-08T06:20:31.470Z,99.90
2018-09-08T06:23:00.570Z,99.90
2018-09-08T06:25:29.104Z,99.90
2018-09-08T06:28:00.046Z,99.90
2018-09-08T06:30:30.646Z,99.90
2018-09-08T06:32:59.817Z,99.90
2018-09-08T06:35:28.383Z,99.90
2018-09-08T06:37:57.013Z,99.90
2018-09-08T06:40:25.597Z,99.90
2018-09-08T06:42:54.219Z,99.90
2018-09-08T06:45:22.763Z,99.90
2018-09-08T06:47:51.265Z,99.90
2018-09-08T06:50:19.806Z,99.90
2018-09-08T06:52:49.582Z,99.90
2018-09-08T06:55:18.382Z,99.90
2018-09-08T06:57:46.904Z,99.90
2018-09-08T07:10:16.896Z,98.80
2018-09-08T07:12:45.411Z,89.00
2018-09-08T07:20:08.798Z,78.20
2018-09-08T07:22:37.309Z,67.00
2018-09-08T07:25:08.521Z,66.80
2018-09-08T07:27:37.155Z,67.30
2018-09-08T07:30:05.738Z,64.40
2018-09-08T07:32:34.211Z,62.90
2018-09-08T07:35:02.734Z,62.20
2018-09-08T07:37:31.285Z,57.90
2018-09-08T07:39:59.781Z,56.60
2018-09-08T07:42:28.265Z,57.00
2018-09-08T07:44:56.751Z,53.70
2018-09-08T07:47:25.546Z,52.70
2018-09-08T07:49:58.372Z,51.20
2018-09-08T07:52:26.880Z,49.00
2018-09-08T07:54:55.381Z,47.20
2018-09-08T07:57:23.882Z,46.30
2018-09-08T07:59:52.437Z,43.50
2018-09-08T08:02:20.930Z,44.00
2018-09-08T08:04:50.402Z,43.00
2018-09-08T08:07:18.885Z,45.70
2018-09-08T08:09:47.375Z,48.90
2018-09-08T08:12:17.998Z,51.10
2018-09-08T08:14:46.542Z,53.00
2018-09-08T08:22:09.264Z,56.80
2018-09-08T08:24:37.963Z,62.70
2018-09-08T08:27:07.183Z,61.40
2018-09-08T08:29:35.809Z,58.80
2018-09-08T08:32:04.330Z,57.10
2018-09-08T08:34:32.853Z,54.60
2018-09-08T08:37:01.398Z,52.40
2018-09-08T08:39:31.380Z,51.90
2018-09-08T08:42:01.749Z,50.40
2018-09-08T08:44:30.278Z,47.90
2018-09-08T08:46:58.757Z,46.20
2018-09-08T08:49:27.238Z,44.80
2018-09-08T08:52:07.245Z,42.80
2018-09-08T08:54:43.725Z,40.10
2018-09-08T08:57:12.241Z,37.90
2018-09-08T08:59:42.873Z,36.60
2018-09-08T09:02:11.354Z,35.30
2018-09-08T09:04:40.044Z,34.50
2018-09-08T09:07:12.078Z,33.50
2018-09-08T09:09:41.982Z,33.90
2018-09-08T09:12:10.755Z,32.70
2018-09-08T09:14:39.345Z,31.60
2018-09-08T09:17:07.879Z,30.70
2018-09-08T09:19:47.626Z,30.40
2018-09-08T09:22:28.562Z,30.60
2018-09-08T09:25:07.479Z,29.80
2018-09-08T09:27:38.994Z,30.00
2018-09-08T09:30:08.434Z,29.00
2018-09-08T09:32:36.935Z,28.80
2018-09-08T09:35:06.104Z,28.90
2018-09-08T09:37:34.598Z,29.90
2018-09-08T09:40:03.122Z,29.90
2018-09-08T09:42:32.066Z,28.70
2018-09-08T09:45:01.279Z,28.10
2018-09-08T09:47:29.783Z,27.70
2018-09-08T09:49:58.590Z,27.40
2018-09-08T09:52:28.255Z,27.60
2018-09-08T09:54:56.864Z,27.90
2018-09-08T09:57:25.578Z,28.60
2018-09-08T09:59:54.151Z,29.10
2018-09-08T10:02:36.701Z,30.30
2018-09-08T10:05:05.228Z,30.40
2018-09-08T10:07:33.708Z,31.20
2018-09-08T10:10:02.399Z,34.00
2018-09-08T10:12:30.895Z,34.50
2018-09-08T10:14:59.728Z,36.10
2018-09-08T10:17:28.287Z,38.90
2018-09-08T10:19:56.946Z,40.50
2018-09-08T10:22:25.578Z,40.50
2018-09-08T10:24:54.703Z,42.60
2018-09-08T10:27:23.299Z,44.40
2018-09-08T10:29:53.858Z,46.80
2018-09-08T10:32:22.562Z,48.50
2018-09-08T10:34:51.178Z,49.00
2018-09-08T10:37:21.241Z,50.00
2018-09-08T10:39:50.523Z,50.70
2018-09-08T10:42:19.142Z,51.70
2018-09-08T10:44:47.683Z,52.70
2018-09-08T10:52:36.725Z,55.00
2018-09-08T10:55:05.285Z,57.20
2018-09-08T10:57:33.936Z,56.60
2018-09-08T11:00:03.303Z,57.60
2018-09-08T11:02:32.245Z,58.90
2018-09-08T11:05:01.327Z,59.00
2018-09-08T11:07:30.150Z,58.70
2018-09-08T11:09:58.804Z,58.70
2018-09-08T11:12:27.321Z,61.00
2018-09-08T11:14:56.569Z,58.70
2018-09-08T11:17:25.278Z,60.00
2018-09-08T11:19:53.965Z,61.00
2018-09-08T11:22:22.961Z,59.80
2018-09-08T11:24:52.062Z,61.10
2018-09-08T11:27:20.526Z,60.70
2018-09-08T11:29:49.289Z,59.70
2018-09-08T11:32:18.491Z,60.60
2018-09-08T11:34:47.033Z,61.10
2018-09-08T11:43:13.732Z,61.10
2018-09-08T11:45:42.382Z,62.90
2018-09-08T11:48:10.902Z,64.10
2018-09-08T11:50:39.517Z,64.50
2018-09-08T11:53:07.992Z,62.00
2018-09-08T11:55:36.628Z,61.00
2018-09-08T11:58:05.177Z,61.00
2018-09-08T12:00:33.802Z,61.40
2018-09-08T12:03:02.349Z,62.50
2018-09-08T12:05:31.275Z,63.80
2018-09-08T12:07:59.796Z,64.20
2018-09-08T12:10:28.304Z,63.10
2018-09-08T12:12:56.814Z,61.60
2018-09-08T12:15:25.334Z,62.30
2018-09-08T12:17:53.783Z,62.70
2018-09-08T12:20:22.286Z,65.10
2018-09-08T12:22:50.802Z,66.10
2018-09-08T12:25:19.352Z,63.90
2018-09-08T12:27:47.890Z,66.00
2018-09-08T12:35:09.657Z,66.90
2018-09-08T12:37:39.448Z,66.10
2018-09-08T12:40:08.437Z,67.60
2018-09-08T12:42:37.237Z,66.60
2018-09-08T12:45:06.208Z,66.70
2018-09-08T12:47:37.364Z,66.70
2018-09-08T12:50:07.520Z,65.90
2018-09-08T12:52:36.222Z,65.90
2018-09-08T12:55:04.788Z,65.60
2018-09-08T12:57:33.418Z,64.50
2018-09-08T13:00:01.975Z,62.70
2018-09-08T13:02:30.834Z,62.80
2018-09-08T13:04:59.490Z,62.20
2018-09-08T13:07:27.966Z,63.20
2018-09-08T13:09:57.096Z,62.90
2018-09-08T13:12:26.203Z,64.20
2018-09-08T13:14:54.698Z,61.80
2018-09-08T13:17:24.030Z,63.80
2018-09-08T13:19:54.438Z,64.10
2018-09-08T13:22:22.998Z,63.10
2018-09-08T13:24:52.123Z,61.50
2018-09-08T13:27:20.684Z,62.00
2018-09-08T13:29:49.209Z,62.10
2018-09-08T13:32:17.818Z,61.20
2018-09-08T13:34:47.295Z,60.40
2018-09-08T13:37:18.326Z,61.40
2018-09-08T13:39:47.099Z,62.00
2018-09-08T13:47:09.855Z,60.80
2018-09-08T13:49:39.861Z,63.90
2018-09-08T13:52:08.340Z,64.90
2018-09-08T13:54:38.097Z,65.30
2018-09-08T13:57:06.684Z,64.80
2018-09-08T13:59:35.453Z,65.60
2018-09-08T14:02:03.994Z,66.40
2018-09-08T14:04:32.729Z,65.70
2018-09-08T14:07:01.358Z,65.90
2018-09-08T14:09:30.006Z,65.30
2018-09-08T14:11:58.479Z,66.90
2018-09-08T14:14:27.263Z,65.20
2018-09-08T14:16:58.719Z,64.60
2018-09-08T14:19:27.541Z,64.50
2018-09-08T14:21:57.268Z,65.80
2018-09-08T14:24:25.819Z,64.60
2018-09-08T14:26:54.402Z,66.40
2018-09-08T14:29:22.877Z,66.20
2018-09-08T14:31:51.379Z,64.90
2018-09-08T14:34:19.882Z,64.40
2018-09-08T14:36:48.388Z,64.10
2018-09-08T14:39:18.752Z,65.00
2018-09-08T14:41:47.393Z,63.80
2018-09-08T14:44:17.327Z,65.00
2018-09-08T14:46:46.621Z,63.20
2018-09-08T14:58:55.474Z,63.60
2018-09-08T15:01:23.986Z,63.70
2018-09-08T15:03:52.490Z,64.40
2018-09-08T15:06:22.564Z,64.80
2018-09-08T15:08:51.109Z,65.70
2018-09-08T15:11:20.063Z,65.80
2018-09-08T15:13:48.975Z,64.60
2018-09-08T15:16:17.501Z,65.50
2018-09-08T15:18:46.132Z,66.50
2018-09-08T15:38:20.212Z,65.80
2018-09-08T15:40:49.845Z,65.70
2018-09-08T15:43:18.335Z,67.00
2018-09-08T15:45:46.922Z,67.00
2018-09-08T15:54:15.421Z,66.20
2018-09-08T15:56:44.639Z,67.40
2018-09-08T15:59:13.108Z,67.90
2018-09-08T16:01:42.297Z,67.40
2018-09-08T16:04:16.455Z,67.70
2018-09-08T16:06:45.029Z,67.50
2018-09-08T16:19:16.801Z,67.20
2018-09-08T16:21:45.285Z,67.10
2018-09-08T16:34:16.798Z,68.50
2018-09-08T16:36:45.318Z,68.90
2018-09-08T16:58:20.298Z,70.90
2018-09-08T17:00:49.279Z,72.00
2018-09-08T17:03:17.902Z,76.50
2018-09-08T17:05:46.390Z,76.70
2018-09-08T17:18:26.739Z,77.00
2018-09-08T17:20:55.294Z,77.60
2018-09-08T17:23:23.845Z,81.40
2018-09-08T17:25:52.402Z,83.20
2018-09-08T17:28:21.495Z,85.30
2018-09-08T17:30:50.186Z,88.60
2018-09-08T17:33:18.686Z,91.10
2018-09-08T17:35:47.145Z,92.10
2018-09-08T17:38:18.433Z,92.50
2018-09-08T17:40:47.562Z,93.10
2018-09-08T17:43:17.394Z,94.50
2018-09-08T17:45:46.337Z,95.10
2018-09-08T17:53:13.973Z,97.50
2018-09-08T17:55:42.453Z,98.20
2018-09-08T17:58:10.954Z,98.10
2018-09-08T18:00:40.674Z,98.90
2018-09-08T18:03:09.753Z,98.60
2018-09-08T18:05:39.032Z,98.60
2018-09-08T18:08:07.530Z,98.50
2018-09-08T18:10:36.166Z,99.10
2018-09-08T18:13:04.665Z,99.10
2018-09-08T18:15:33.342Z,99.90
2018-09-08T18:18:01.862Z,99.90
2018-09-08T18:20:30.373Z,99.90
2018-09-08T18:22:59.511Z,99.90
2018-09-08T18:25:28.113Z,99.90
2018-09-08T18:27:56.578Z,99.90
2018-09-08T18:30:25.888Z,99.90
2018-09-08T18:32:54.545Z,99.90
2018-09-08T18:35:22.970Z,99.90
2018-09-08T18:37:51.508Z,99.90
2018-09-08T18:40:20.403Z,99.90
2018-09-08T18:42:48.990Z,99.90
2018-09-08T18:45:17.633Z,99.90
2018-09-08T18:47:46.115Z,99.90
2018-09-08T18:55:08.579Z,99.90
2018-09-08T18:57:37.130Z,99.90
2018-09-08T19:05:00.823Z,99.90
2018-09-08T19:07:29.410Z,99.90
2018-09-08T19:10:03.406Z,99.90
2018-09-08T19:12:32.326Z,99.90
2018-09-08T19:15:06.405Z,99.90
2018-09-08T19:17:35.307Z,99.90
2018-09-08T19:20:09.575Z,99.90
2018-09-08T19:22:38.070Z,99.90
2018-09-08T19:25:06.817Z,99.90
2018-09-08T19:27:35.321Z,99.90
2018-09-08T19:30:04.130Z,99.90
2018-09-08T19:32:32.610Z,99.90
2018-09-08T19:35:06.487Z,99.90
2018-09-08T19:37:36.063Z,99.90
2018-09-08T19:40:09.491Z,99.90
2018-09-08T19:42:37.974Z,99.90
2018-09-08T19:45:07.297Z,99.90
2018-09-08T19:47:41.111Z,99.90
2018-09-08T19:50:09.624Z,99.90
2018-09-08T19:52:46.080Z,99.90
2018-09-08T20:00:13.362Z,99.90
2018-09-08T20:02:41.906Z,99.90
2018-09-08T20:05:10.481Z,99.90
2018-09-08T20:07:39.033Z,99.90
2018-09-08T20:10:07.638Z,99.90
2018-09-08T20:12:36.213Z,99.90
2018-09-08T20:15:04.912Z,99.90
2018-09-08T20:17:33.454Z,99.90
2018-09-08T20:20:01.930Z,99.90
2018-09-08T20:22:31.059Z,99.90
2018-09-08T20:24:59.725Z,99.90
2018-09-08T20:27:28.984Z,99.90
2018-09-08T20:29:58.259Z,99.90
2018-09-08T20:32:27.103Z,99.90
2018-09-08T20:34:55.655Z,99.90
2018-09-08T20:37:24.166Z,99.90
2018-09-08T20:39:52.645Z,99.90
2018-09-08T20:42:21.157Z,99.90
2018-09-08T20:44:50.292Z,99.90
2018-09-08T20:47:19.329Z,99.90
2018-09-08T20:49:47.822Z,99.90
2018-09-08T20:52:17.410Z,99.90
2018-09-08T20:54:46.215Z,99.90
2018-09-08T21:02:09.203Z,99.90
2018-09-08T21:04:37.814Z,99.90
2018-09-08T21:07:07.691Z,99.90
2018-09-08T21:09:36.348Z,99.90
2018-09-08T21:12:04.866Z,99.90
2018-09-08T21:14:33.330Z,99.90
2018-09-08T21:17:01.833Z,99.90
2018-09-08T21:19:30.330Z,99.90
2018-09-08T21:21:58.805Z,99.90
2018-09-08T21:24:27.629Z,99.90
2018-09-08T21:26:56.114Z,99.90
2018-09-08T21:29:24.625Z,99.90
2018-09-08T21:31:53.162Z,99.90
2018-09-08T21:34:21.706Z,99.90
2018-09-08T21:36:50.935Z,99.90
2018-09-08T21:39:20.681Z,99.90
2018-09-08T21:41:49.232Z,99.90
2018-09-08T21:44:18.124Z,99.90
2018-09-08T21:46:48.377Z,99.90
2018-09-08T21:49:17.375Z,99.90
2018-09-08T21:51:46.525Z,99.90
2018-09-08T21:59:10.346Z,99.90
2018-09-08T22:01:41.702Z,99.90
2018-09-08T22:04:10.498Z,99.90
2018-09-08T22:06:39.629Z,99.90
2018-09-08T22:09:09.218Z,99.90
2018-09-08T22:11:37.912Z,99.90
2018-09-08T22:14:07.342Z,99.90
2018-09-08T22:16:37.151Z,99.90
2018-09-08T22:19:06.704Z,99.90
2018-09-08T22:21:35.342Z,99.90
2018-09-08T22:24:03.837Z,99.90
2018-09-08T22:26:32.479Z,99.90
2018-09-08T22:29:01.097Z,99.90
2018-09-08T22:31:29.905Z,99.90
2018-09-08T22:33:59.195Z,99.90
2018-09-08T22:36:27.748Z,99.90
2018-09-08T22:38:56.507Z,99.90
2018-09-08T22:41:25.029Z,99.90
2018-09-08T22:43:53.550Z,99.90
2018-09-08T22:46:22.049Z,99.90
2018-09-08T22:48:50.502Z,99.90
2018-09-08T22:51:19.088Z,99.90
2018-09-08T22:53:47.951Z,99.90
2018-09-08T22:56:17.478Z,99.90
2018-09-08T22:58:46.157Z,99.90
2018-09-08T23:06:11.626Z,99.90
2018-09-08T23:08:40.821Z,99.90
2018-09-08T23:11:09.306Z,99.90
2018-09-08T23:13:37.870Z,99.90
2018-09-08T23:16:06.373Z,99.90
2018-09-08T23:18:35.178Z,99.90
2018-09-08T23:21:04.084Z,99.90
2018-09-08T23:23:32.758Z,99.90
2018-09-08T23:26:01.889Z,99.90
2018-09-08T23:28:30.444Z,99.90
2018-09-08T23:30:59.325Z,99.90
2018-09-08T23:33:27.848Z,99.90
2018-09-08T23:35:56.682Z,99.90
2018-09-08T23:38:25.382Z,99.90
2018-09-08T23:40:54.091Z,99.90
2018-09-08T23:43:22.648Z,99.90
2018-09-08T23:45:51.161Z,99.90
2018-09-08T23:48:20.073Z,99.90
2018-09-08T23:50:48.597Z,99.90
2018-09-08T23:53:17.367Z,99.90
2018-09-08T23:55:45.995Z,99.90
